createdAt,value
2022-09-04T00:00:13.548Z,20.80
2022-09-04T00:02:39.894Z,20.80
2022-09-04T00:05:06.080Z,20.60
2022-09-04T02:17:28.899Z,19.50
2022-09-04T02:19:54.866Z,19.50
2022-09-04T02:22:20.842Z,19.50
2022-09-04T02:24:46.826Z,19.50
2022-09-04T02:27:12.810Z,19.40
2022-09-04T02:29:38.817Z,19.40
2022-09-04T02:32:05.276Z,19.40
2022-09-04T02:34:35.530Z,19.40
2022-09-04T02:37:01.543Z,19.30
2022-09-04T02:39:27.591Z,18.80
2022-09-04T02:41:53.593Z,19.10
2022-09-04T02:44:19.600Z,18.90
2022-09-04T02:46:45.640Z,19.10
2022-09-04T02:49:11.627Z,19.20
2022-09-04T02:51:37.635Z,19.20
2022-09-04T02:54:03.630Z,19.20
2022-09-04T02:56:29.605Z,19.10
2022-09-04T02:58:55.595Z,19.10
2022-09-04T03:01:21.608Z,19.10
2022-09-04T03:03:48.088Z,19.00
2022-09-04T03:06:14.072Z,19.00
2022-09-04T03:08:40.043Z,18.90
2022-09-04T03:11:06.057Z,18.70
2022-09-04T03:13:32.037Z,18.70
2022-09-04T03:15:58.068Z,18.90
2022-09-04T03:18:24.102Z,18.90
2022-09-04T03:20:50.122Z,18.80
2022-09-04T03:23:16.124Z,18.80
2022-09-04T03:25:42.120Z,18.90
2022-09-04T03:28:08.100Z,18.90
2022-09-04T03:30:34.107Z,18.80
2022-09-04T03:33:00.102Z,18.80
2022-09-04T03:35:26.100Z,18.80
2022-09-04T03:37:52.080Z,18.90
2022-09-04T03:40:18.083Z,18.90
2022-09-04T03:42:44.055Z,18.60
2022-09-04T03:45:10.035Z,18.60
2022-09-04T03:47:36.060Z,18.70
2022-09-04T03:50:02.059Z,18.70
2022-09-04T03:52:28.038Z,18.50
2022-09-04T03:54:54.051Z,18.50
2022-09-04T03:57:20.021Z,18.30
2022-09-04T03:59:46.020Z,18.50
2022-09-04T04:02:12.016Z,18.20
2022-09-04T04:04:38.016Z,17.80
2022-09-04T04:07:04.812Z,18.00
2022-09-04T04:09:30.816Z,18.00
2022-09-04T04:11:56.783Z,18.10
2022-09-04T04:14:22.760Z,18.10
2022-09-04T04:16:55.933Z,18.00
2022-09-04T04:19:22.383Z,18.10
2022-09-04T04:21:48.376Z,18.00
2022-09-04T04:24:14.351Z,18.10
2022-09-04T04:26:40.320Z,18.30
2022-09-04T04:29:06.340Z,18.20
2022-09-04T04:31:32.410Z,18.10
2022-09-04T04:33:58.437Z,17.80
2022-09-04T04:36:24.461Z,17.50
2022-09-04T04:38:50.468Z,17.70
2022-09-04T04:41:16.488Z,17.70
2022-09-04T04:43:42.483Z,17.80
2022-09-04T04:46:08.551Z,17.90
2022-09-04T04:48:34.551Z,18.00
2022-09-04T04:51:00.551Z,17.80
2022-09-04T04:53:26.532Z,18.00
2022-09-04T04:55:52.823Z,18.10
2022-09-04T04:58:19.151Z,18.00
2022-09-04T05:00:45.441Z,18.10
2022-09-04T05:03:11.745Z,18.00
2022-09-04T05:05:38.040Z,18.20
2022-09-04T05:08:08.202Z,18.20
2022-09-04T07:18:24.146Z,21.00
2022-09-04T07:28:52.467Z,21.10
2022-09-04T07:31:18.579Z,21.10
2022-09-04T07:33:44.641Z,21.10
2022-09-04T07:36:11.586Z,21.10
2022-09-04T07:38:37.592Z,20.90
2022-09-04T07:41:03.609Z,21.00
2022-09-04T07:43:30.375Z,21.20
2022-09-04T07:45:57.329Z,21.20
2022-09-04T07:48:25.895Z,21.10
2022-09-04T07:50:52.011Z,20.80
2022-09-04T07:53:18.936Z,20.90
2022-09-04T07:55:45.784Z,20.90
2022-09-04T07:58:11.754Z,21.00
2022-09-04T08:00:37.735Z,21.50
2022-09-04T08:03:04.577Z,21.80
2022-09-04T08:05:30.603Z,21.90
2022-09-04T08:07:56.584Z,22.10
2022-09-04T08:10:23.538Z,22.10
2022-09-04T08:12:50.823Z,22.20
2022-09-04T08:15:16.955Z,21.90
2022-09-04T08:17:42.984Z,22.20
2022-09-04T08:20:08.976Z,22.20
2022-09-04T08:22:34.959Z,22.30
2022-09-04T08:25:00.982Z,22.40
2022-09-04T08:27:26.991Z,22.40
2022-09-04T08:29:53.800Z,22.60
2022-09-04T08:32:19.799Z,22.80
2022-09-04T08:34:45.824Z,23.40
2022-09-04T08:37:12.558Z,23.40
2022-09-04T08:39:43.488Z,23.60
2022-09-04T08:42:09.523Z,23.50
2022-09-04T08:44:36.397Z,23.70
2022-09-04T08:47:02.994Z,23.80
2022-09-04T08:49:28.970Z,23.70
2022-09-04T08:51:55.003Z,23.80
2022-09-04T08:54:20.983Z,24.00
2022-09-04T08:56:47.651Z,24.40
2022-09-04T08:59:13.654Z,24.40
2022-09-04T09:01:40.620Z,24.50
2022-09-04T09:04:07.675Z,24.40
2022-09-04T09:06:36.723Z,24.20
2022-09-04T09:09:02.706Z,24.00
2022-09-04T09:11:29.532Z,24.40
2022-09-04T09:13:59.860Z,24.40
2022-09-04T09:16:27.866Z,24.40
2022-09-04T09:18:54.596Z,24.60
2022-09-04T09:21:20.590Z,25.00
2022-09-04T09:23:46.598Z,25.30
2022-09-04T09:26:13.347Z,25.60
2022-09-04T09:28:39.314Z,25.60
2022-09-04T09:31:05.480Z,25.30
2022-09-04T09:33:32.417Z,25.30
2022-09-04T09:35:58.440Z,25.80
2022-09-04T09:38:24.446Z,26.30
2022-09-04T09:40:51.118Z,26.50
2022-09-04T09:43:18.870Z,26.30
2022-09-04T09:45:44.935Z,26.20
2022-09-04T09:48:11.985Z,26.00
2022-09-04T09:50:38.408Z,25.90
2022-09-04T09:53:04.707Z,25.40
2022-09-04T09:55:30.827Z,25.00
2022-09-04T10:08:39.483Z,26.00
2022-09-04T12:25:01.486Z,27.10
2022-09-04T12:27:28.381Z,26.60
2022-09-04T12:29:58.638Z,26.80
2022-09-04T12:32:24.615Z,27.00
2022-09-04T12:34:51.563Z,27.10
2022-09-04T12:37:17.560Z,27.00
2022-09-04T12:39:44.538Z,26.60
2022-09-04T12:42:10.539Z,26.30
2022-09-04T12:44:36.525Z,25.70
2022-09-04T12:47:02.506Z,25.60
2022-09-04T12:49:28.536Z,25.90
2022-09-04T12:51:54.546Z,25.80
2022-09-04T12:54:21.298Z,25.80
2022-09-04T12:56:49.101Z,25.50
2022-09-04T12:59:19.354Z,25.50
2022-09-04T13:01:45.508Z,25.40
2022-09-04T13:04:11.642Z,25.10
2022-09-04T13:06:37.646Z,25.60
2022-09-04T13:09:04.365Z,25.60
2022-09-04T13:11:30.361Z,25.60
2022-09-04T13:13:56.336Z,25.80
2022-09-04T13:16:22.386Z,26.00
2022-09-04T13:18:48.611Z,25.90
2022-09-04T13:21:15.355Z,26.10
2022-09-04T13:23:46.523Z,25.80
2022-09-04T13:26:12.766Z,25.20
2022-09-04T13:28:42.594Z,25.00
2022-09-04T13:31:08.621Z,25.60
2022-09-04T13:33:35.639Z,25.30
2022-09-04T13:36:02.128Z,24.50
2022-09-04T13:38:28.154Z,24.40
2022-09-04T13:40:54.163Z,24.50
2022-09-04T13:43:20.830Z,24.50
2022-09-04T13:45:47.722Z,24.70
2022-09-04T13:48:13.723Z,25.00
2022-09-04T13:50:39.703Z,25.30
2022-09-04T13:53:06.640Z,25.70
2022-09-04T13:55:33.369Z,26.00
2022-09-04T13:57:59.432Z,25.60
2022-09-04T14:00:25.490Z,25.80
2022-09-04T14:02:53.665Z,26.00
2022-09-04T14:05:19.717Z,26.00
2022-09-04T14:07:45.735Z,26.20
2022-09-04T14:10:12.384Z,26.50
2022-09-04T14:12:39.748Z,26.70
2022-09-04T14:15:05.765Z,26.80
2022-09-04T14:17:32.454Z,27.00
2022-09-04T14:19:58.457Z,26.40
2022-09-04T14:22:25.204Z,26.30
2022-09-04T14:24:51.202Z,25.70
2022-09-04T14:27:17.199Z,25.60
2022-09-04T14:29:43.898Z,25.50
2022-09-04T14:32:10.134Z,25.30
2022-09-04T14:34:36.904Z,25.00
2022-09-04T14:37:04.449Z,24.50
2022-09-04T14:39:30.808Z,24.30
2022-09-04T14:41:57.110Z,24.10
2022-09-04T14:44:23.414Z,24.50
2022-09-04T14:46:51.516Z,24.40
2022-09-04T14:49:18.051Z,24.40
2022-09-04T14:51:44.557Z,24.00
2022-09-04T16:43:27.221Z,24.90
2022-09-04T16:48:37.717Z,24.50
2022-09-04T16:51:25.066Z,24.40
2022-09-04T16:53:50.586Z,24.50
2022-09-04T16:56:17.253Z,24.00
2022-09-04T16:58:43.308Z,24.00
2022-09-04T17:01:14.116Z,23.90
2022-09-04T17:03:40.637Z,23.70
2022-09-04T17:06:07.324Z,23.30
2022-09-04T17:08:33.397Z,22.80
2022-09-04T17:10:59.374Z,22.90
2022-09-04T17:13:27.689Z,22.90
2022-09-04T17:15:54.308Z,23.30
2022-09-04T17:18:20.825Z,23.50
2022-09-04T17:22:08.528Z,23.70
2022-09-04T17:29:01.922Z,23.80
2022-09-04T17:29:03.085Z,23.80
2022-09-04T17:29:34.641Z,23.70
2022-09-04T17:31:51.590Z,23.50
2022-09-04T17:37:04.316Z,23.10
2022-09-04T17:40:39.787Z,23.40
2022-09-04T17:40:48.054Z,22.70
2022-09-04T17:42:37.292Z,22.80
2022-09-04T17:45:07.143Z,22.90
2022-09-04T17:47:33.133Z,22.40
2022-09-04T17:49:59.167Z,22.70
2022-09-04T17:52:26.056Z,22.80
2022-09-04T17:54:52.060Z,22.80
2022-09-04T17:57:18.061Z,22.80
2022-09-04T17:59:47.796Z,22.80
2022-09-04T18:02:13.819Z,22.80
2022-09-04T18:04:40.718Z,22.70
2022-09-04T18:07:28.881Z,22.60
2022-09-04T18:09:52.786Z,22.50
2022-09-04T18:12:18.820Z,22.40
2022-09-04T18:14:45.573Z,22.10
2022-09-04T18:17:14.940Z,21.70
2022-09-04T18:19:40.991Z,21.50
2022-09-04T18:22:25.075Z,21.70
2022-09-04T18:24:52.238Z,21.90
2022-09-04T18:27:19.068Z,21.70
2022-09-04T18:32:43.160Z,21.90
2022-09-04T18:37:10.820Z,21.80
2022-09-04T18:37:24.549Z,21.90
2022-09-04T18:38:04.238Z,21.80
2022-09-04T18:40:36.056Z,21.50
2022-09-04T18:50:21.946Z,21.60
2022-09-04T18:50:28.623Z,21.50
2022-09-04T18:50:38.688Z,21.60
2022-09-04T18:51:36.776Z,21.70
2022-09-04T18:54:03.108Z,21.80
2022-09-04T18:56:29.477Z,21.80
2022-09-04T18:58:55.794Z,21.80
2022-09-04T19:01:26.707Z,21.70
2022-09-04T21:12:37.425Z,20.00
2022-09-04T21:15:03.394Z,19.90
2022-09-04T21:17:34.601Z,19.70
2022-09-04T21:20:01.613Z,19.50
2022-09-04T21:22:33.693Z,19.80
2022-09-04T21:24:59.930Z,19.70
2022-09-04T21:27:26.729Z,19.60
2022-09-04T21:29:52.704Z,19.60
2022-09-04T21:32:18.702Z,19.70
2022-09-04T21:34:45.364Z,19.80
2022-09-04T21:37:11.389Z,19.80
2022-09-04T21:39:37.475Z,19.70
2022-09-04T21:42:16.924Z,19.60
2022-09-04T21:44:43.623Z,19.70
2022-09-04T21:47:12.832Z,19.80
2022-09-04T21:49:42.889Z,19.80
2022-09-04T21:52:08.855Z,19.80
2022-09-04T21:54:38.402Z,19.70
2022-09-04T22:02:30.785Z,19.80
2022-09-04T22:02:39.689Z,19.80
2022-09-04T22:02:59.443Z,19.40
2022-09-04T22:05:28.274Z,19.30
2022-09-04T22:12:19.579Z,18.90
2022-09-04T22:13:32.586Z,18.90
2022-09-04T22:13:45.207Z,19.00
2022-09-04T22:16:12.300Z,18.90
2022-09-04T22:18:38.344Z,19.20
2022-09-04T22:21:04.331Z,19.20
2022-09-04T22:23:30.341Z,19.20
2022-09-04T22:26:09.290Z,19.30
2022-09-04T22:28:43.025Z,19.40
2022-09-04T22:31:09.131Z,19.40
2022-09-04T22:33:48.270Z,19.40
2022-09-04T22:36:21.126Z,19.40
2022-09-04T22:38:47.357Z,19.20
2022-09-04T22:41:13.411Z,18.70
2022-09-04T22:43:46.742Z,18.80
2022-09-04T22:46:13.361Z,18.90
2022-09-04T22:48:40.316Z,19.10
2022-09-04T22:51:06.896Z,19.10
2022-09-04T22:53:32.895Z,19.10
2022-09-04T22:56:22.573Z,19.10
2022-09-04T22:58:45.562Z,19.10
2022-09-04T23:01:11.543Z,18.60
2022-09-04T23:03:37.587Z,18.40
2022-09-04T23:06:44.732Z,18.50
2022-09-04T23:13:48.604Z,18.40
2022-09-04T23:13:59.443Z,18.60
2022-09-04T23:14:23.343Z,18.90
2022-09-04T23:16:50.471Z,18.40
2022-09-04T23:26:33.492Z,18.50
2022-09-04T23:26:35.967Z,18.30
2022-09-04T23:26:50.180Z,18.60
2022-09-04T23:27:36.669Z,18.40
2022-09-04T23:30:02.681Z,18.40
2022-09-04T23:32:28.675Z,18.20
2022-09-04T23:35:14.846Z,18.00
2022-09-04T23:40:25.871Z,18.50
2022-09-04T23:42:53.877Z,18.60
2022-09-04T23:45:19.864Z,18.50
2022-09-04T23:47:48.749Z,18.40
2022-09-04T23:50:16.708Z,18.40
2022-09-04T23:52:48.844Z,18.40
2022-09-04T23:55:15.880Z,18.40
2022-09-04T23:57:42.167Z,17.90
